Time;durP1;ratioP1;P1;durP2;ratioP2;P2;SDS_P1;SDS_P2;PMS_P1;PMS_P2;Temp;Humidity;BMP_temperature;BMP_pressure;BME280_temperature;BME280_humidity;BME280_pressure;Samples;Min_cycle;Max_cycle;Signal;HPM_P1;HPM_P2
2024/04/26 00:01:55;;;;;;;13.13;9.93;;;8.60;89.60;;;;;;5368626;26;20070;-67
2024/04/26 00:04:21;;;;;;;26.33;17.35;;;8.60;89.80;;;;;;5354067;26;20079;-67
2024/04/26 00:06:46;;;;;;;15.68;11.27;;;8.60;90.00;;;;;;5369148;26;20012;-67
2024/04/26 00:09:12;;;;;;;15.52;11.20;;;8.60;90.00;;;;;;5364049;26;20004;-67
2024/04/26 00:11:39;;;;;;;13.15;10.63;;;8.70;90.00;;;;;;5361053;26;20063;-67
2024/04/26 00:14:04;;;;;;;15.93;11.02;;;8.60;90.00;;;;;;5352419;26;20431;-67
2024/04/26 00:16:30;;;;;;;18.77;12.40;;;8.60;90.10;;;;;;5362149;26;20008;-67
2024/04/26 00:18:55;;;;;;;15.68;11.82;;;8.60;90.20;;;;;;5364983;26;20032;-67
2024/04/26 00:21:21;;;;;;;15.88;11.57;;;8.60;90.20;;;;;;5354292;26;20011;-66
2024/04/26 00:23:47;;;;;;;13.18;10.50;;;8.60;90.30;;;;;;5362194;26;20604;-66
2024/04/26 00:26:12;;;;;;;11.60;9.60;;;8.50;90.50;;;;;;5354552;26;20005;-67
2024/04/26 00:28:38;;;;;;;14.27;11.50;;;8.50;90.60;;;;;;5362904;26;20015;-67
2024/04/26 00:31:04;;;;;;;12.52;10.48;;;8.50;90.60;;;;;;5369144;26;19997;-66
2024/04/26 00:33:29;;;;;;;16.75;11.82;;;8.50;90.70;;;;;;5358114;26;20004;-65
2024/04/26 00:35:55;;;;;;;19.73;12.35;;;8.50;90.80;;;;;;5367410;26;19993;-67
2024/04/26 00:38:21;;;;;;;20.63;13.00;;;8.50;90.90;;;;;;5365223;26;20001;-67
2024/04/26 00:40:47;;;;;;;16.40;11.23;;;8.40;90.90;;;;;;5374333;26;20015;-66
2024/04/26 00:43:12;;;;;;;14.65;10.77;;;8.40;91.00;;;;;;5365181;26;20009;-66
2024/04/26 00:45:38;;;;;;;15.13;10.63;;;8.50;91.00;;;;;;5361200;26;20316;-65
2024/04/26 00:48:04;;;;;;;14.73;10.95;;;8.50;91.00;;;;;;5370813;26;20713;-67
2024/04/26 00:50:29;;;;;;;16.08;12.27;;;8.40;91.10;;;;;;5357423;26;20048;-65
2024/04/26 00:52:55;;;;;;;13.93;11.52;;;8.40;91.30;;;;;;5369051;26;20893;-64
2024/04/26 00:55:21;;;;;;;12.98;10.95;;;8.40;91.30;;;;;;5357620;26;20021;-65
2024/04/26 00:57:47;;;;;;;15.90;11.95;;;8.40;91.30;;;;;;5359101;26;20007;-64
2024/04/26 01:00:13;;;;;;;12.75;10.60;;;8.40;91.40;;;;;;5357467;26;20509;-66
2024/04/26 01:02:41;;;;;;;16.30;12.35;;;8.30;91.40;;;;;;5367987;26;20012;-65
2024/04/26 01:05:07;;;;;;;15.75;11.77;;;8.30;91.60;;;;;;5369509;26;20063;-64
2024/04/26 01:07:33;;;;;;;14.60;11.30;;;8.30;91.80;;;;;;5367328;26;20005;-65
2024/04/26 01:09:58;;;;;;;11.52;10.02;;;8.30;91.80;;;;;;5357692;26;20042;-66
2024/04/26 01:12:24;;;;;;;12.20;9.45;;;8.30;91.80;;;;;;5371397;26;20004;-66
2024/04/26 01:14:50;;;;;;;12.80;10.00;;;8.40;91.80;;;;;;5376553;26;20004;-66
2024/04/26 01:17:15;;;;;;;13.05;10.25;;;8.40;91.80;;;;;;5372279;26;20020;-67
2024/04/26 01:19:41;;;;;;;17.38;11.27;;;8.40;91.80;;;;;;5368759;26;20074;-66
2024/04/26 01:22:21;;;;;;;14.57;10.57;;;8.40;91.80;;;;;;5366696;26;20044;-65
2024/04/26 01:24:46;;;;;;;14.65;11.70;;;8.40;91.90;;;;;;5363879;26;20012;-65
2024/04/26 01:27:12;;;;;;;13.88;10.57;;;8.30;92.00;;;;;;5359100;26;19996;-67
2024/04/26 01:29:37;;;;;;;13.05;9.95;;;8.20;92.10;;;;;;5368171;26;20343;-66
2024/04/26 01:32:03;;;;;;;12.60;9.52;;;8.30;92.10;;;;;;5371143;26;20001;-63
2024/04/26 01:34:28;;;;;;;12.88;9.73;;;8.30;92.10;;;;;;5366381;26;19993;-64
2024/04/26 01:36:54;;;;;;;12.23;9.27;;;8.30;92.00;;;;;;5369980;26;20004;-66
2024/04/26 01:39:19;;;;;;;15.50;9.38;;;8.40;92.10;;;;;;5368016;26;20479;-67
2024/04/26 01:41:45;;;;;;;11.77;9.50;;;8.30;92.00;;;;;;5371990;26;19996;-66
2024/04/26 01:44:10;;;;;;;10.80;8.63;;;8.30;92.00;;;;;;5371663;26;21177;-67
2024/04/26 01:46:36;;;;;;;13.85;10.55;;;8.30;92.00;;;;;;5369751;26;20501;-67
2024/04/26 01:49:02;;;;;;;11.95;9.80;;;8.30;92.00;;;;;;5363200;26;20484;-66
2024/04/26 01:51:27;;;;;;;12.40;9.23;;;8.20;92.10;;;;;;5372988;26;20446;-66
2024/04/26 01:53:53;;;;;;;13.40;10.02;;;8.30;92.10;;;;;;5365591;26;20000;-65
2024/04/26 01:56:18;;;;;;;11.82;9.23;;;8.30;92.10;;;;;;5366218;26;20011;-66
2024/04/26 01:58:44;;;;;;;9.77;8.23;;;8.20;92.20;;;;;;5366054;26;19996;-65
2024/04/26 02:01:09;;;;;;;10.57;8.57;;;8.20;92.30;;;;;;5370670;26;20011;-66
2024/04/26 02:03:35;;;;;;;10.68;8.48;;;8.20;92.30;;;;;;5361750;26;19996;-65
2024/04/26 02:06:00;;;;;;;10.20;7.85;;;8.20;92.30;;;;;;5367566;26;20000;-66
2024/04/26 02:08:27;;;;;;;12.50;9.52;;;8.20;92.30;;;;;;5366032;26;19992;-66
2024/04/26 02:10:52;;;;;;;10.70;8.30;;;8.20;92.30;;;;;;5357321;26;20072;-66
2024/04/26 02:13:18;;;;;;;11.05;8.05;;;8.20;92.40;;;;;;5369925;26;20005;-66
2024/04/26 02:15:43;;;;;;;11.80;8.80;;;8.20;92.40;;;;;;5368044;26;20462;-66
2024/04/26 02:18:09;;;;;;;12.30;8.90;;;8.20;92.30;;;;;;5361925;26;20015;-67
2024/04/26 02:20:34;;;;;;;10.98;8.65;;;8.20;92.30;;;;;;5365783;26;20000;-66
2024/04/26 02:23:00;;;;;;;9.98;7.20;;;8.20;92.30;;;;;;5361305;26;20050;-66
2024/04/26 02:25:26;;;;;;;9.32;7.22;;;8.20;92.30;;;;;;5364512;26;20000;-65
2024/04/26 02:27:51;;;;;;;10.52;7.95;;;8.20;92.30;;;;;;5363964;26;20024;-65
2024/04/26 02:30:17;;;;;;;9.73;7.53;;;8.20;92.30;;;;;;5371001;26;22160;-66
2024/04/26 02:32:42;;;;;;;9.15;6.93;;;8.20;92.60;;;;;;5377489;26;20007;-67
2024/04/26 02:35:08;;;;;;;9.68;6.68;;;8.20;92.30;;;;;;5369557;26;19998;-66
2024/04/26 02:37:33;;;;;;;9.57;6.93;;;8.20;92.20;;;;;;5354853;26;20077;-66
2024/04/26 02:39:59;;;;;;;9.02;6.53;;;8.30;92.20;;;;;;5371449;26;20008;-65
2024/04/26 02:42:24;;;;;;;10.15;6.65;;;8.30;92.20;;;;;;5373691;26;20004;-65
2024/04/26 02:44:50;;;;;;;8.82;6.78;;;8.30;92.20;;;;;;5376521;26;20019;-66
2024/04/26 02:47:15;;;;;;;9.35;7.10;;;8.40;92.20;;;;;;5365405;26;20008;-65
2024/04/26 02:49:41;;;;;;;9.88;7.28;;;8.40;92.20;;;;;;5369840;26;20005;-66
2024/04/26 02:52:08;;;;;;;9.70;7.07;;;8.40;92.10;;;;;;5369815;26;20004;-66
2024/04/26 02:54:33;;;;;;;8.93;6.75;;;8.40;92.00;;;;;;5359952;26;20020;-66
2024/04/26 02:57:00;;;;;;;9.50;7.35;;;8.40;92.00;;;;;;5372620;26;20479;-65
2024/04/26 02:59:25;;;;;;;9.73;7.80;;;8.30;92.00;;;;;;5372557;26;20007;-66
2024/04/26 03:01:51;;;;;;;8.90;7.50;;;8.30;92.00;;;;;;5358208;26;20012;-66
2024/04/26 03:04:16;;;;;;;10.02;6.82;;;8.20;92.10;;;;;;5356706;26;20004;-65
2024/04/26 03:06:43;;;;;;;9.70;7.03;;;8.30;92.10;;;;;;5362551;26;20001;-67
2024/04/26 03:09:09;;;;;;;10.25;7.47;;;8.30;92.10;;;;;;5368717;26;20015;-64
2024/04/26 03:11:35;;;;;;;11.23;7.75;;;8.30;92.10;;;;;;5368829;26;20296;-66
2024/04/26 03:14:01;;;;;;;9.70;7.90;;;8.30;92.10;;;;;;5361590;26;20081;-66
2024/04/26 03:16:27;;;;;;;9.60;7.38;;;8.30;92.10;;;;;;5362415;26;20576;-66
2024/04/26 03:18:52;;;;;;;10.55;7.95;;;8.30;92.10;;;;;;5366999;26;20004;-65
2024/04/26 03:21:18;;;;;;;12.02;8.50;;;8.30;92.10;;;;;;5371545;26;20402;-66
2024/04/26 03:23:44;;;;;;;12.25;8.48;;;8.30;92.10;;;;;;5372901;26;20000;-65
2024/04/26 03:26:13;;;;;;;10.05;8.27;;;8.30;92.10;;;;;;5363363;26;20009;-66
2024/04/26 03:28:44;;;;;;;11.13;8.25;;;8.30;92.10;;;;;;5364663;26;20001;-66
2024/04/26 03:31:09;;;;;;;10.15;8.35;;;8.30;92.10;;;;;;5363470;26;20000;-66
2024/04/26 03:33:35;;;;;;;10.30;8.38;;;8.30;92.20;;;;;;5363983;26;20469;-67
2024/04/26 03:36:00;;;;;;;9.70;8.05;;;8.30;92.20;;;;;;5363531;26;20015;-66
2024/04/26 03:38:26;;;;;;;12.15;9.23;;;8.40;92.20;;;;;;5362453;26;20195;-65
2024/04/26 03:40:51;;;;;;;11.55;9.43;;;8.40;92.20;;;;;;5371960;26;20702;-66
2024/04/26 03:43:17;;;;;;;12.45;9.20;;;8.30;92.10;;;;;;5354321;26;20011;-66
2024/04/26 03:45:44;;;;;;;13.02;10.00;;;8.30;92.20;;;;;;5358404;26;20494;-66
2024/04/26 03:48:10;;;;;;;11.35;9.13;;;8.30;92.20;;;;;;5366608;26;19997;-66
2024/04/26 03:50:35;;;;;;;11.52;9.18;;;8.30;92.30;;;;;;5362084;26;20342;-66
2024/04/26 03:53:01;;;;;;;13.07;9.50;;;8.30;92.30;;;;;;5367279;26;20069;-64
2024/04/26 03:55:26;;;;;;;12.90;9.30;;;8.30;92.20;;;;;;5354310;26;20016;-66
2024/04/26 03:57:52;;;;;;;12.50;9.30;;;8.40;92.30;;;;;;5364780;26;20015;-66
2024/04/26 04:00:17;;;;;;;12.77;9.73;;;8.40;92.20;;;;;;5367462;26;19999;-67
2024/04/26 04:02:43;;;;;;;12.55;9.68;;;8.40;92.30;;;;;;5366647;26;20768;-66
2024/04/26 04:05:09;;;;;;;14.02;10.65;;;8.40;92.30;;;;;;5362007;26;20132;-67
2024/04/26 04:07:34;;;;;;;12.32;10.18;;;8.40;92.20;;;;;;5357278;26;19997;-66
2024/04/26 04:10:00;;;;;;;12.75;10.05;;;8.40;92.20;;;;;;5365950;26;20386;-66
2024/04/26 04:12:25;;;;;;;13.88;10.40;;;8.30;92.20;;;;;;5360246;26;20467;-67
2024/04/26 04:14:51;;;;;;;12.30;9.90;;;8.30;92.30;;;;;;5373407;26;20000;-67
2024/04/26 04:17:16;;;;;;;12.18;9.75;;;8.30;92.30;;;;;;5362421;26;19996;-67
2024/04/26 04:19:42;;;;;;;12.43;10.52;;;8.40;92.40;;;;;;5360302;26;20444;-66
2024/04/26 04:22:08;;;;;;;12.45;9.95;;;8.40;92.40;;;;;;5367041;26;20000;-66
2024/04/26 04:24:34;;;;;;;14.00;11.13;;;8.40;92.40;;;;;;5371280;26;20059;-65
2024/04/26 04:26:59;;;;;;;14.70;11.80;;;8.40;92.40;;;;;;5361424;26;20010;-67
2024/04/26 04:29:25;;;;;;;14.82;10.68;;;8.30;92.40;;;;;;5364908;26;20001;-66
2024/04/26 04:31:50;;;;;;;13.35;10.20;;;8.30;92.50;;;;;;5366952;26;20000;-67
2024/04/26 04:34:16;;;;;;;14.65;10.90;;;8.40;92.50;;;;;;5364194;26;20023;-65
2024/04/26 04:36:41;;;;;;;12.20;9.80;;;8.40;92.50;;;;;;5350154;26;20005;-68
2024/04/26 04:39:07;;;;;;;12.73;10.32;;;8.40;92.50;;;;;;5370005;26;20011;-67
2024/04/26 04:41:33;;;;;;;12.88;10.65;;;8.40;92.50;;;;;;5367441;26;20016;-66
2024/04/26 04:43:58;;;;;;;12.40;10.02;;;8.50;92.50;;;;;;5368702;26;20447;-66
2024/04/26 04:46:24;;;;;;;12.93;10.25;;;8.50;92.50;;;;;;5356583;26;19996;-66
2024/04/26 04:48:49;;;;;;;12.98;10.18;;;8.50;92.50;;;;;;5368301;26;20469;-65
2024/04/26 04:51:15;;;;;;;12.23;9.85;;;8.50;92.50;;;;;;5359874;26;20000;-67
2024/04/26 04:53:40;;;;;;;13.70;10.23;;;8.50;92.60;;;;;;5360612;26;20028;-66
2024/04/26 04:56:06;;;;;;;14.23;10.73;;;8.60;92.70;;;;;;5350016;26;20000;-65
2024/04/26 04:58:31;;;;;;;15.10;10.82;;;8.50;92.50;;;;;;5355242;26;20144;-67
2024/04/26 05:00:57;;;;;;;14.45;11.10;;;8.50;92.50;;;;;;5365962;26;20077;-65
2024/04/26 05:03:22;;;;;;;14.80;10.38;;;8.60;92.60;;;;;;5360591;26;20012;-64
2024/04/26 05:05:49;;;;;;;13.57;11.23;;;8.50;92.50;;;;;;5365641;26;20023;-66
2024/04/26 05:08:15;;;;;;;13.70;11.30;;;8.50;92.50;;;;;;5372994;26;20004;-64
2024/04/26 05:10:40;;;;;;;15.70;11.38;;;8.50;92.60;;;;;;5363529;26;20000;-67
2024/04/26 05:13:06;;;;;;;14.93;11.45;;;8.50;92.60;;;;;;5363606;26;20000;-67
2024/04/26 05:15:31;;;;;;;13.23;10.82;;;8.50;92.60;;;;;;5373869;26;20005;-67
2024/04/26 05:17:58;;;;;;;13.50;10.68;;;8.50;92.60;;;;;;5366231;26;20343;-65
2024/04/26 05:20:24;;;;;;;14.55;11.57;;;8.50;92.60;;;;;;5365450;26;20013;-66
2024/04/26 05:22:50;;;;;;;15.80;11.85;;;8.50;92.60;;;;;;5368270;26;20047;-67
2024/04/26 05:25:17;;;;;;;15.65;11.77;;;8.60;92.50;;;;;;5364692;26;20008;-66
2024/04/26 05:27:46;;;;;;;16.73;12.25;;;8.50;92.50;;;;;;5365724;26;20852;-66
2024/04/26 05:30:14;;;;;;;15.05;11.73;;;8.40;92.60;;;;;;5358658;26;19997;-66
2024/04/26 05:32:40;;;;;;;14.52;11.88;;;8.40;92.70;;;;;;5366475;26;20015;-63
2024/04/26 05:35:06;;;;;;;14.75;11.95;;;8.40;92.70;;;;;;5359227;26;20048;-67
2024/04/26 05:37:31;;;;;;;14.57;11.23;;;8.40;92.80;;;;;;5380529;26;20012;-66
2024/04/26 05:39:57;;;;;;;13.15;10.63;;;8.40;92.80;;;;;;5371371;26;20032;-67
2024/04/26 05:42:22;;;;;;;14.95;11.57;;;8.50;92.80;;;;;;5363107;26;20004;-64
2024/04/26 05:44:48;;;;;;;14.00;11.02;;;8.50;92.70;;;;;;5354223;26;20048;-65
2024/04/26 05:47:14;;;;;;;15.48;11.02;;;8.50;92.70;;;;;;5372964;26;19996;-65
2024/04/26 05:49:40;;;;;;;13.68;10.05;;;8.50;92.80;;;;;;5360444;26;20013;-65
2024/04/26 05:52:05;;;;;;;15.82;12.30;;;8.50;92.80;;;;;;5362802;26;20021;-67
2024/04/26 05:54:31;;;;;;;13.82;11.15;;;8.50;92.80;;;;;;5364534;26;20070;-65
2024/04/26 05:56:56;;;;;;;13.35;10.07;;;8.50;92.80;;;;;;5358696;26;20012;-65
2024/04/26 05:59:22;;;;;;;14.20;10.43;;;8.50;92.80;;;;;;5366762;26;19996;-66
2024/04/26 06:01:47;;;;;;;14.02;10.35;;;8.50;92.80;;;;;;5358211;26;20074;-65
2024/04/26 06:04:14;;;;;;;14.25;11.10;;;8.50;92.80;;;;;;5369101;26;20004;-66
2024/04/26 06:06:44;;;;;;;14.00;10.77;;;8.60;92.80;;;;;;5352787;26;20000;-65
2024/04/26 06:09:10;;;;;;;14.20;10.63;;;8.50;92.80;;;;;;5362207;26;20011;-65
2024/04/26 06:11:35;;;;;;;13.25;10.02;;;8.50;92.90;;;;;;5374567;26;19993;-66
2024/04/26 06:14:01;;;;;;;11.48;9.38;;;8.60;92.90;;;;;;5349311;26;20012;-66
2024/04/26 06:16:26;;;;;;;15.40;11.80;;;8.60;92.90;;;;;;5361186;26;20007;-65
2024/04/26 06:18:54;;;;;;;15.27;11.15;;;8.60;92.80;;;;;;5359526;26;20014;-68
2024/04/26 06:21:20;;;;;;;13.65;10.05;;;8.60;92.80;;;;;;5359724;26;20001;-64
2024/04/26 06:23:46;;;;;;;15.00;10.93;;;8.60;92.80;;;;;;5357172;26;20001;-64
2024/04/26 06:26:13;;;;;;;13.40;10.88;;;8.60;93.10;;;;;;5350944;26;20081;-63
2024/04/26 06:28:42;;;;;;;14.43;10.45;;;8.70;92.90;;;;;;5355831;26;20001;-64
2024/04/26 06:31:08;;;;;;;13.85;10.48;;;8.60;92.80;;;;;;5357327;26;20054;-63
2024/04/26 06:33:33;;;;;;;12.35;9.63;;;8.70;92.80;;;;;;5362412;26;20024;-62
2024/04/26 06:35:59;;;;;;;13.23;9.77;;;8.70;92.80;;;;;;5366738;26;20001;-66
2024/04/26 06:38:24;;;;;;;13.07;10.80;;;8.80;92.80;;;;;;5360529;26;20000;-65
2024/04/26 06:40:50;;;;;;;13.70;10.68;;;8.90;92.80;;;;;;5358608;26;20000;-63
2024/04/26 06:43:15;;;;;;;13.77;10.82;;;8.90;92.80;;;;;;5355973;26;20074;-65
2024/04/26 06:45:41;;;;;;;14.77;10.55;;;8.90;92.80;;;;;;5368794;26;20511;-63
2024/04/26 06:48:07;;;;;;;13.98;10.30;;;8.90;92.70;;;;;;5354403;26;20706;-63
2024/04/26 06:50:32;;;;;;;21.58;10.48;;;8.90;92.70;;;;;;5368141;26;20008;-64
2024/04/26 06:52:58;;;;;;;12.75;9.02;;;9.00;92.80;;;;;;5360001;26;20011;-68
2024/04/26 06:55:23;;;;;;;11.75;9.65;;;9.00;92.70;;;;;;5359194;26;20004;-64
2024/04/26 06:57:49;;;;;;;13.00;9.73;;;9.10;92.70;;;;;;5368670;26;20016;-64
2024/04/26 07:00:14;;;;;;;14.13;9.57;;;9.20;92.60;;;;;;5365535;26;19997;-67
2024/04/26 07:02:40;;;;;;;10.90;8.85;;;9.30;92.40;;;;;;5361476;26;20031;-67
2024/04/26 07:05:06;;;;;;;13.00;10.10;;;9.30;92.30;;;;;;5362216;26;20061;-65
2024/04/26 07:07:31;;;;;;;12.43;8.57;;;9.40;92.30;;;;;;5358134;26;19996;-66
2024/04/26 07:09:57;;;;;;;10.35;9.00;;;9.40;92.20;;;;;;5346398;26;20019;-66
2024/04/26 07:12:22;;;;;;;11.52;9.18;;;9.40;92.20;;;;;;5360984;26;19996;-66
2024/04/26 07:14:48;;;;;;;11.43;8.90;;;9.40;92.20;;;;;;5362470;26;20015;-64
2024/04/26 07:17:14;;;;;;;11.43;9.07;;;9.70;92.30;;;;;;5361171;26;20500;-65
2024/04/26 07:19:40;;;;;;;10.70;8.57;;;10.00;91.70;;;;;;5370602;26;20002;-66
2024/04/26 07:22:07;;;;;;;11.45;8.63;;;10.00;91.40;;;;;;5360699;26;20001;-65
2024/04/26 07:24:32;;;;;;;11.20;8.63;;;10.10;91.20;;;;;;5356554;26;20001;-64
2024/04/26 07:26:58;;;;;;;10.15;8.52;;;10.10;91.20;;;;;;5368392;26;20106;-64
2024/04/26 07:29:27;;;;;;;10.82;7.85;;;10.20;91.20;;;;;;5360426;26;20018;-64
2024/04/26 07:31:53;;;;;;;10.20;8.38;;;10.40;91.20;;;;;;5370059;26;20521;-64
2024/04/26 07:34:18;;;;;;;10.77;8.00;;;10.60;90.80;;;;;;5361035;26;20013;-64
2024/04/26 07:36:45;;;;;;;10.80;8.60;;;10.70;90.40;;;;;;5359948;26;20020;-64
2024/04/26 07:39:11;;;;;;;10.50;7.93;;;10.50;90.10;;;;;;5362411;26;20008;-63
2024/04/26 07:41:37;;;;;;;9.95;7.30;;;11.80;89.50;;;;;;5357146;26;20084;-62
2024/04/26 07:44:02;;;;;;;10.77;7.30;;;13.90;83.40;;;;;;5361492;26;20000;-64
2024/04/26 07:46:28;;;;;;;10.32;7.28;;;15.10;77.60;;;;;;5362112;26;20079;-66
2024/04/26 07:48:53;;;;;;;9.43;6.95;;;15.70;74.70;;;;;;5361926;26;20075;-67
2024/04/26 07:51:19;;;;;;;8.77;7.05;;;15.90;73.50;;;;;;5357035;26;20093;-64
2024/04/26 07:53:45;;;;;;;9.02;6.50;;;14.70;74.70;;;;;;5356020;26;20434;-65
2024/04/26 07:56:10;;;;;;;7.82;6.45;;;14.10;76.30;;;;;;5351399;26;20009;-64
2024/04/26 07:58:36;;;;;;;7.35;5.80;;;13.80;77.00;;;;;;5368596;26;20389;-63
2024/04/26 08:01:01;;;;;;;7.75;6.10;;;13.10;77.80;;;;;;5368562;26;19996;-64
2024/04/26 08:03:27;;;;;;;8.15;6.15;;;12.60;79.40;;;;;;5371659;26;20068;-65
2024/04/26 08:05:54;;;;;;;10.05;6.07;;;12.20;80.90;;;;;;5365750;26;20000;-64
2024/04/26 08:08:20;;;;;;;7.10;5.30;;;12.10;82.00;;;;;;5360460;26;20048;-65
2024/04/26 08:10:46;;;;;;;6.28;5.00;;;12.30;81.30;;;;;;5362821;26;20024;-65
2024/04/26 08:13:11;;;;;;;6.60;4.95;;;12.60;81.70;;;;;;5363487;26;20004;-66
2024/04/26 08:15:37;;;;;;;7.93;5.90;;;12.50;81.00;;;;;;5361425;26;20000;-65
2024/04/26 08:18:04;;;;;;;6.82;5.18;;;12.50;80.90;;;;;;5379658;26;20008;-65
2024/04/26 08:20:29;;;;;;;7.72;4.97;;;12.30;81.00;;;;;;5368639;26;19992;-65
2024/04/26 08:22:55;;;;;;;6.30;4.85;;;12.30;80.90;;;;;;5361143;26;20023;-68
2024/04/26 08:25:21;;;;;;;7.28;4.82;;;12.20;80.80;;;;;;5365011;26;20081;-65
2024/04/26 08:27:46;;;;;;;5.68;4.13;;;12.00;80.80;;;;;;5361897;26;22011;-67
2024/04/26 08:30:12;;;;;;;5.80;3.97;;;12.10;81.40;;;;;;5366234;26;20012;-64
2024/04/26 08:32:37;;;;;;;5.13;3.60;;;12.20;81.30;;;;;;5364635;26;20008;-63
2024/04/26 08:35:03;;;;;;;6.35;3.40;;;12.20;80.70;;;;;;5362323;26;20846;-64
2024/04/26 08:37:29;;;;;;;5.70;3.50;;;12.00;80.00;;;;;;5360529;26;21628;-64
2024/04/26 08:39:54;;;;;;;7.75;3.58;;;11.80;79.90;;;;;;5360638;26;20001;-63
2024/04/26 08:42:23;;;;;;;4.25;3.08;;;11.80;80.10;;;;;;5355753;26;20012;-62
2024/04/26 08:44:48;;;;;;;5.28;3.45;;;12.00;80.10;;;;;;5365691;26;19996;-64
2024/04/26 08:47:18;;;;;;;7.65;3.03;;;12.20;79.10;;;;;;5379025;26;19995;-64
2024/04/26 08:49:46;;;;;;;5.07;2.90;;;12.30;78.30;;;;;;5363629;26;20000;-62
2024/04/26 08:52:14;;;;;;;5.10;3.13;;;12.40;77.80;;;;;;5371075;26;20451;-65
2024/04/26 08:54:40;;;;;;;4.78;2.75;;;12.50;76.90;;;;;;5362426;26;20004;-63
2024/04/26 08:57:06;;;;;;;4.65;2.80;;;12.50;76.30;;;;;;5358258;26;20378;-65
2024/04/26 08:59:39;;;;;;;4.40;2.95;;;12.70;75.80;;;;;;5373650;26;20385;-63
2024/04/26 09:02:06;;;;;;;5.40;3.10;;;12.70;75.10;;;;;;5349617;26;20041;-65
2024/04/26 09:04:31;;;;;;;4.63;2.50;;;12.80;74.70;;;;;;5356984;26;20595;-64
2024/04/26 09:06:57;;;;;;;5.45;2.80;;;12.80;73.70;;;;;;5354634;26;20000;-64
2024/04/26 09:09:22;;;;;;;4.40;2.30;;;12.90;73.90;;;;;;5362423;26;19996;-64
2024/04/26 09:11:48;;;;;;;4.80;2.17;;;12.70;72.10;;;;;;5354114;26;20001;-65
2024/04/26 09:14:16;;;;;;;4.63;2.63;;;12.80;72.40;;;;;;5360008;26;20461;-64
2024/04/26 09:16:42;;;;;;;3.08;2.20;;;12.90;71.70;;;;;;5362972;26;20005;-66
2024/04/26 09:19:09;;;;;;;4.15;2.08;;;12.90;71.50;;;;;;5367985;26;20004;-65
2024/04/26 09:21:35;;;;;;;2.92;2.10;;;13.00;70.90;;;;;;5364037;26;20012;-65
2024/04/26 09:24:00;;;;;;;4.28;2.08;;;13.00;70.70;;;;;;5370896;26;20004;-63
2024/04/26 09:26:27;;;;;;;4.47;2.10;;;13.20;70.30;;;;;;5371097;26;20013;-63
2024/04/26 09:28:52;;;;;;;4.28;2.00;;;13.30;69.40;;;;;;5364381;26;20004;-63
2024/04/26 09:31:18;;;;;;;2.47;2.03;;;13.40;69.30;;;;;;5357303;26;20541;-64
2024/04/26 09:33:44;;;;;;;3.35;2.10;;;13.50;68.80;;;;;;5368558;26;20328;-67
2024/04/26 09:36:10;;;;;;;4.20;2.10;;;13.60;67.70;;;;;;5376768;26;20081;-63
2024/04/26 09:38:38;;;;;;;5.22;2.17;;;13.60;67.50;;;;;;5362636;26;20005;-64
2024/04/26 09:41:05;;;;;;;3.10;1.73;;;13.70;67.50;;;;;;5360684;26;20541;-67
2024/04/26 09:43:32;;;;;;;4.57;2.00;;;13.80;67.30;;;;;;5362783;26;20442;-64
2024/04/26 09:46:00;;;;;;;3.78;1.65;;;13.90;66.60;;;;;;5358254;26;20004;-66
2024/04/26 09:48:26;;;;;;;2.33;1.58;;;13.80;66.00;;;;;;5364836;26;20065;-64
2024/04/26 09:50:51;;;;;;;2.70;1.50;;;13.70;65.60;;;;;;5362606;26;20015;-64
2024/04/26 09:53:19;;;;;;;3.15;1.40;;;13.80;65.30;;;;;;5361399;26;19996;-65
2024/04/26 09:55:44;;;;;;;2.00;1.60;;;13.80;64.30;;;;;;5365209;26;19996;-65
2024/04/26 09:58:10;;;;;;;3.47;1.67;;;13.80;63.50;;;;;;5367267;26;20078;-64
2024/04/26 10:00:38;;;;;;;3.47;1.80;;;13.80;62.90;;;;;;5366630;26;20037;-64
2024/04/26 10:03:05;;;;;;;3.00;1.48;;;13.70;61.90;;;;;;5368584;26;19996;-65
2024/04/26 10:05:32;;;;;;;2.83;1.48;;;13.70;62.80;;;;;;5361290;26;19997;-65
2024/04/26 10:08:01;;;;;;;2.90;1.45;;;13.80;62.60;;;;;;5372525;26;20038;-64
2024/04/26 10:10:29;;;;;;;1.38;1.10;;;14.00;62.70;;;;;;5356846;26;20009;-64
2024/04/26 10:13:05;;;;;;;3.15;1.55;;;14.20;62.70;;;;;;5369140;26;20510;-65
2024/04/26 10:15:32;;;;;;;3.08;1.25;;;14.40;61.80;;;;;;5355632;26;20375;-64
2024/04/26 10:17:57;;;;;;;3.40;1.50;;;14.30;61.10;;;;;;5361954;26;20001;-64
2024/04/26 10:20:24;;;;;;;3.10;1.10;;;14.20;61.40;;;;;;5367555;26;20470;-66
2024/04/26 10:23:00;;;;;;;2.30;1.20;;;14.20;61.60;;;;;;5366017;26;20009;-65
2024/04/26 10:25:26;;;;;;;4.97;1.30;;;14.10;61.20;;;;;;5353096;26;20001;-65
2024/04/26 10:27:51;;;;;;;2.47;1.20;;;14.00;61.90;;;;;;5364681;26;20012;-64
2024/04/26 10:30:17;;;;;;;2.67;1.15;;;14.00;61.60;;;;;;5363959;26;20008;-66
2024/04/26 10:32:47;;;;;;;5.18;1.63;;;14.10;61.50;;;;;;5370728;26;19996;-64
2024/04/26 10:35:19;;;;;;;2.63;1.30;;;14.10;60.80;;;;;;5361710;26;20005;-64
2024/04/26 10:37:58;;;;;;;2.03;1.27;;;14.10;60.80;;;;;;5369229;26;20004;-64
2024/04/26 10:40:24;;;;;;;3.65;1.35;;;14.10;61.10;;;;;;5357718;26;20001;-66
2024/04/26 10:42:50;;;;;;;2.03;1.10;;;14.10;61.10;;;;;;5368933;26;20004;-66
2024/04/26 10:45:15;;;;;;;3.05;1.00;;;14.20;60.70;;;;;;5357093;26;20000;-65
2024/04/26 10:47:41;;;;;;;1.75;1.20;;;14.40;59.80;;;;;;5371626;26;19996;-65
2024/04/26 10:50:07;;;;;;;1.88;1.10;;;14.40;58.40;;;;;;5359750;26;20000;-64
2024/04/26 10:52:32;;;;;;;3.13;1.17;;;14.50;58.50;;;;;;5370736;26;20010;-63
2024/04/26 10:54:58;;;;;;;2.40;1.00;;;14.60;58.10;;;;;;5357469;26;20008;-63
2024/04/26 10:57:24;;;;;;;3.58;1.33;;;14.60;57.80;;;;;;5357884;26;20008;-64
2024/04/26 11:00:03;;;;;;;2.50;1.17;;;14.60;57.70;;;;;;5369228;26;20397;-65
2024/04/26 11:02:29;;;;;;;3.25;1.30;;;14.50;57.10;;;;;;5352199;26;19992;-63
2024/04/26 11:05:05;;;;;;;3.40;1.20;;;14.50;58.00;;;;;;5354312;26;19997;-63
2024/04/26 11:07:30;;;;;;;2.08;1.20;;;14.40;56.50;;;;;;5357999;26;19997;-64
2024/04/26 11:09:56;;;;;;;1.33;0.98;;;14.50;57.30;;;;;;5367806;26;20351;-63
2024/04/26 11:12:21;;;;;;;2.80;1.15;;;14.60;57.50;;;;;;5377991;26;20000;-64
2024/04/26 11:14:47;;;;;;;1.95;1.10;;;14.80;57.60;;;;;;5373110;26;20028;-62
2024/04/26 11:17:13;;;;;;;1.88;1.02;;;15.00;57.40;;;;;;5373594;26;19996;-63
2024/04/26 11:19:40;;;;;;;1.75;1.10;;;15.10;56.90;;;;;;5351816;26;20015;-64
2024/04/26 11:22:06;;;;;;;1.85;1.00;;;15.10;56.60;;;;;;5370228;26;20012;-64
2024/04/26 11:24:32;;;;;;;2.40;0.90;;;15.10;57.00;;;;;;5371626;26;20049;-63
2024/04/26 11:26:58;;;;;;;2.92;1.13;;;15.30;57.00;;;;;;5370666;26;20012;-65
2024/04/26 11:29:24;;;;;;;3.53;1.25;;;15.30;56.20;;;;;;5364291;26;20036;-63
2024/04/26 11:31:50;;;;;;;2.25;1.30;;;15.30;55.30;;;;;;5371040;26;20004;-63
2024/04/26 11:34:17;;;;;;;2.80;1.27;;;15.30;55.80;;;;;;5355503;26;20011;-63
2024/04/26 11:36:43;;;;;;;1.67;1.17;;;15.30;54.50;;;;;;5354963;26;20044;-65
2024/04/26 11:39:10;;;;;;;2.03;1.20;;;15.30;54.60;;;;;;5367958;26;20012;-63
2024/04/26 11:41:35;;;;;;;2.00;1.20;;;15.30;54.60;;;;;;5380514;26;20041;-63
2024/04/26 11:44:01;;;;;;;1.45;1.05;;;15.40;55.10;;;;;;5359958;26;20083;-62
2024/04/26 11:46:27;;;;;;;1.90;1.20;;;15.40;55.10;;;;;;5359230;26;19999;-63
2024/04/26 11:48:53;;;;;;;2.20;1.27;;;15.40;54.80;;;;;;5359803;26;20071;-63
2024/04/26 11:51:19;;;;;;;1.30;1.00;;;15.20;55.00;;;;;;5359753;26;20010;-62
2024/04/26 11:53:45;;;;;;;2.00;1.08;;;15.10;55.10;;;;;;5362766;26;20067;-62
2024/04/26 11:56:14;;;;;;;1.75;1.13;;;15.00;55.60;;;;;;5359082;26;20393;-64
2024/04/26 11:58:40;;;;;;;2.30;1.10;;;15.00;55.90;;;;;;5355845;26;20004;-63
2024/04/26 12:01:06;;;;;;;2.58;1.30;;;15.00;56.00;;;;;;5356834;26;20003;-62
2024/04/26 12:03:32;;;;;;;2.78;1.17;;;15.00;56.30;;;;;;5357373;26;20007;-63
2024/04/26 12:05:58;;;;;;;3.25;1.42;;;14.90;56.30;;;;;;5357041;26;19996;-63
2024/04/26 12:08:25;;;;;;;3.85;1.30;;;14.90;56.40;;;;;;5358156;26;19996;-64
2024/04/26 12:10:50;;;;;;;2.35;0.90;;;14.90;56.40;;;;;;5363144;26;20033;-63
2024/04/26 12:13:16;;;;;;;4.18;1.10;;;14.90;57.00;;;;;;5357779;26;19996;-65
2024/04/26 12:15:41;;;;;;;2.95;1.20;;;14.90;57.30;;;;;;5368899;26;20342;-64
2024/04/26 12:18:09;;;;;;;2.20;1.02;;;15.00;57.20;;;;;;5359509;26;20045;-65
2024/04/26 12:20:35;;;;;;;3.35;1.00;;;15.20;57.30;;;;;;5362847;26;20032;-63
2024/04/26 12:23:01;;;;;;;2.90;1.00;;;15.40;56.90;;;;;;5359270;26;20066;-63
2024/04/26 12:25:26;;;;;;;1.80;1.10;;;15.40;56.30;;;;;;5356617;26;20015;-62
2024/04/26 12:27:52;;;;;;;2.47;1.10;;;15.50;56.20;;;;;;5357925;26;20008;-64
2024/04/26 12:30:17;;;;;;;2.83;1.30;;;15.40;55.80;;;;;;5353776;26;19997;-65
2024/04/26 12:32:43;;;;;;;2.22;1.20;;;15.50;56.20;;;;;;5363368;26;20421;-64
2024/04/26 12:35:09;;;;;;;3.63;1.35;;;15.80;56.00;;;;;;5361319;26;19996;-62
2024/04/26 12:37:34;;;;;;;2.25;1.45;;;15.90;55.30;;;;;;5360214;26;19993;-63